Time;durP1;ratioP1;P1;durP2;ratioP2;P2;SDS_P1;SDS_P2;PMS_P1;PMS_P2;Temp;Humidity;BMP_temperature;BMP_pressure;BME280_temperature;BME280_humidity;BME280_pressure;Samples;Min_cycle;Max_cycle;Signal;HPM_P1;HPM_P2
2021/06/26 00:01:47;;;;;;;19.50;16.30;;;14.80;99.90;;;;;;5095323;28;20106;-42
2021/06/26 00:04:13;;;;;;;18.05;15.65;;;14.80;99.90;;;;;;5081941;28;20492;-42
2021/06/26 00:06:39;;;;;;;19.27;14.95;;;14.80;99.90;;;;;;5088856;28;20027;-42
2021/06/26 00:09:04;;;;;;;18.70;16.20;;;14.80;99.90;;;;;;5087614;28;20032;-42
2021/06/26 00:11:30;;;;;;;16.92;15.10;;;14.80;99.90;;;;;;5083597;28;20059;-43
2021/06/26 00:13:56;;;;;;;23.05;15.57;;;14.80;99.90;;;;;;5088912;28;20017;-42
2021/06/26 00:16:21;;;;;;;18.50;15.90;;;14.80;99.90;;;;;;5087972;28;20152;-42
2021/06/26 00:18:46;;;;;;;16.15;14.07;;;14.80;99.90;;;;;;5074978;28;20029;-42
2021/06/26 00:21:12;;;;;;;17.60;15.07;;;14.90;99.90;;;;;;5068986;28;20032;-42
2021/06/26 00:23:38;;;;;;;15.85;13.88;;;14.80;99.90;;;;;;5082000;28;20020;-42
2021/06/26 00:26:03;;;;;;;18.45;14.25;;;14.80;99.90;;;;;;5096108;28;20064;-41
2021/06/26 00:28:29;;;;;;;16.73;13.43;;;14.90;99.90;;;;;;5097372;28;20019;-41
2021/06/26 00:30:54;;;;;;;17.30;13.50;;;14.80;99.90;;;;;;5101488;28;20019;-41
2021/06/26 00:33:20;;;;;;;17.60;13.48;;;14.70;99.90;;;;;;5081214;28;20017;-42
2021/06/26 00:35:45;;;;;;;15.70;13.10;;;14.70;99.90;;;;;;5083842;28;20474;-41
2021/06/26 00:38:11;;;;;;;18.48;13.27;;;14.60;99.90;;;;;;5089975;28;20036;-41
2021/06/26 00:40:37;;;;;;;14.70;12.75;;;14.60;99.90;;;;;;5085257;28;20032;-42
2021/06/26 00:43:02;;;;;;;16.58;13.23;;;14.50;99.90;;;;;;5087001;28;20081;-41
2021/06/26 00:45:28;;;;;;;14.15;12.45;;;14.60;99.90;;;;;;5088422;28;20044;-42
2021/06/26 00:47:53;;;;;;;15.48;12.77;;;14.50;99.90;;;;;;5074609;28;20486;-41
2021/06/26 00:50:25;;;;;;;15.70;13.57;;;14.60;99.90;;;;;;5071851;28;20028;-42
2021/06/26 00:52:51;;;;;;;17.55;13.15;;;14.60;99.90;;;;;;5089593;28;20421;-41
2021/06/26 00:55:18;;;;;;;14.13;12.63;;;14.60;99.90;;;;;;5085295;28;20024;-41
2021/06/26 00:57:48;;;;;;;12.82;11.48;;;14.50;99.90;;;;;;5083697;28;20028;-41
2021/06/26 01:00:15;;;;;;;12.88;11.57;;;14.50;99.90;;;;;;5088985;28;20154;-41
2021/06/26 01:02:41;;;;;;;14.63;12.68;;;14.50;99.90;;;;;;5077849;28;20032;-41
2021/06/26 01:05:08;;;;;;;15.48;12.02;;;14.50;99.90;;;;;;5084127;28;20107;-41
2021/06/26 01:07:33;;;;;;;13.32;11.88;;;14.40;99.90;;;;;;5100884;28;20038;-41
2021/06/26 01:09:59;;;;;;;14.52;11.88;;;14.40;99.90;;;;;;5103301;28;20024;-41
2021/06/26 01:12:25;;;;;;;12.48;11.18;;;14.40;99.90;;;;;;5097138;28;20028;-41
2021/06/26 01:14:51;;;;;;;14.18;12.05;;;14.30;99.90;;;;;;5099332;28;20027;-41
2021/06/26 01:17:17;;;;;;;13.48;11.75;;;14.30;99.90;;;;;;5102857;28;20051;-41
2021/06/26 01:19:42;;;;;;;12.50;11.20;;;14.20;99.90;;;;;;5091104;28;20269;-41
2021/06/26 01:22:08;;;;;;;11.98;10.45;;;14.10;99.90;;;;;;5102988;28;20027;-41
2021/06/26 01:24:36;;;;;;;12.43;11.13;;;14.00;99.90;;;;;;5096918;28;20016;-41
2021/06/26 01:27:02;;;;;;;12.18;10.93;;;14.00;99.90;;;;;;5092830;28;20482;-41
2021/06/26 01:29:29;;;;;;;13.27;11.88;;;14.00;99.90;;;;;;5101614;28;20416;-41
2021/06/26 01:31:55;;;;;;;13.13;11.13;;;14.00;99.90;;;;;;5104269;28;20095;-41
2021/06/26 01:34:21;;;;;;;15.30;12.98;;;14.00;99.90;;;;;;5096572;28;20024;-41
2021/06/26 01:36:47;;;;;;;15.20;12.60;;;13.90;99.90;;;;;;5092188;28;20012;-41
2021/06/26 01:39:13;;;;;;;13.32;11.93;;;13.90;99.90;;;;;;5102718;28;20397;-41
2021/06/26 01:41:39;;;;;;;14.38;12.88;;;13.80;99.90;;;;;;5096768;28;20108;-41
2021/06/26 01:44:04;;;;;;;13.30;11.90;;;13.80;99.90;;;;;;5104139;28;20088;-41
2021/06/26 01:46:30;;;;;;;14.15;12.65;;;13.70;99.90;;;;;;5096705;28;20093;-41
2021/06/26 01:49:10;;;;;;;15.68;12.02;;;13.60;99.90;;;;;;5105197;28;20053;-41
2021/06/26 01:51:36;;;;;;;15.27;12.57;;;13.60;99.90;;;;;;5091664;28;20028;-41
2021/06/26 01:54:04;;;;;;;15.18;13.65;;;13.60;99.90;;;;;;5097592;28;20091;-41
2021/06/26 01:56:30;;;;;;;17.38;13.43;;;13.60;99.90;;;;;;5101179;28;20519;-41
2021/06/26 01:58:55;;;;;;;15.73;13.90;;;13.60;99.90;;;;;;5096807;28;20228;-41
2021/06/26 02:01:21;;;;;;;15.23;13.63;;;13.50;99.90;;;;;;5104066;28;20084;-41
2021/06/26 02:03:46;;;;;;;16.05;13.80;;;13.60;99.90;;;;;;5100188;28;20024;-41
2021/06/26 02:06:12;;;;;;;15.30;13.13;;;13.60;99.90;;;;;;5105104;28;20027;-41
2021/06/26 02:08:37;;;;;;;17.20;12.90;;;13.50;99.90;;;;;;5094926;28;20032;-41
2021/06/26 02:11:03;;;;;;;16.48;14.77;;;13.50;99.90;;;;;;5092308;28;20031;-41
2021/06/26 02:13:29;;;;;;;14.10;12.60;;;13.60;99.90;;;;;;5094455;28;20022;-41
2021/06/26 02:15:55;;;;;;;14.55;13.02;;;13.50;99.90;;;;;;5099664;28;20151;-40
2021/06/26 02:18:20;;;;;;;14.73;12.43;;;13.50;99.90;;;;;;5100103;28;20012;-41
2021/06/26 02:20:46;;;;;;;15.88;12.90;;;13.50;99.90;;;;;;5098184;28;20024;-41
2021/06/26 02:23:11;;;;;;;15.38;13.75;;;13.50;99.90;;;;;;5098707;28;20048;-41
2021/06/26 02:25:37;;;;;;;18.13;14.65;;;13.50;99.90;;;;;;5100964;28;20132;-41
2021/06/26 02:28:03;;;;;;;14.35;12.68;;;13.40;99.90;;;;;;5090995;28;20191;-41
2021/06/26 02:30:28;;;;;;;16.00;12.88;;;13.40;99.90;;;;;;5107033;28;20147;-41
2021/06/26 02:32:54;;;;;;;14.75;13.15;;;13.40;99.90;;;;;;5096911;28;20097;-41
2021/06/26 02:35:19;;;;;;;15.43;13.60;;;13.30;99.90;;;;;;5099685;28;20046;-41
2021/06/26 02:37:45;;;;;;;14.90;12.65;;;13.30;99.90;;;;;;5097701;28;20043;-41
2021/06/26 02:40:11;;;;;;;15.25;12.90;;;13.30;99.90;;;;;;5096410;28;20028;-40
2021/06/26 02:42:37;;;;;;;14.85;13.27;;;13.20;99.90;;;;;;5100963;28;20024;-41
2021/06/26 02:45:03;;;;;;;14.52;12.85;;;13.20;99.90;;;;;;5099756;28;20465;-41
2021/06/26 02:47:30;;;;;;;15.40;12.75;;;13.10;99.90;;;;;;5107045;28;20047;-41
2021/06/26 02:49:55;;;;;;;15.50;13.40;;;13.20;99.90;;;;;;5097964;28;20111;-41
2021/06/26 02:52:21;;;;;;;16.02;14.00;;;13.10;99.90;;;;;;5095533;28;20110;-41
2021/06/26 02:54:46;;;;;;;15.52;13.30;;;13.10;99.90;;;;;;5087706;28;20061;-41
2021/06/26 02:57:12;;;;;;;15.07;12.73;;;13.00;99.90;;;;;;5093217;28;20039;-41
2021/06/26 02:59:37;;;;;;;16.63;12.68;;;13.00;99.90;;;;;;5083244;28;20024;-41
2021/06/26 03:02:03;;;;;;;17.27;13.52;;;12.90;99.90;;;;;;5081132;28;20410;-41
2021/06/26 03:04:28;;;;;;;16.80;14.20;;;12.90;99.90;;;;;;5093138;28;20116;-41
2021/06/26 03:06:54;;;;;;;16.00;13.38;;;12.80;99.90;;;;;;5080700;28;20023;-41
2021/06/26 03:09:20;;;;;;;16.83;13.63;;;12.80;99.90;;;;;;5079753;28;20690;-41
2021/06/26 03:11:45;;;;;;;21.80;16.38;;;12.80;99.90;;;;;;5104424;28;20027;-41
2021/06/26 03:14:11;;;;;;;19.88;13.98;;;12.80;99.90;;;;;;5102278;28;20030;-40
2021/06/26 03:16:36;;;;;;;16.90;13.70;;;12.80;99.90;;;;;;5103112;28;20027;-40
2021/06/26 03:19:02;;;;;;;16.10;13.85;;;12.90;99.90;;;;;;5100219;28;20036;-41
2021/06/26 03:21:28;;;;;;;16.17;13.48;;;12.90;99.90;;;;;;5092023;28;20024;-41
2021/06/26 03:23:53;;;;;;;17.83;13.82;;;12.90;99.90;;;;;;5072627;28;20032;-40
2021/06/26 03:26:19;;;;;;;15.55;13.15;;;12.80;99.90;;;;;;5073635;28;20244;-40
2021/06/26 03:28:45;;;;;;;17.70;13.02;;;12.70;99.90;;;;;;5074219;28;20382;-41
2021/06/26 03:31:10;;;;;;;16.70;13.40;;;12.70;99.90;;;;;;5072998;28;20025;-40
2021/06/26 03:33:36;;;;;;;15.63;12.95;;;12.70;99.90;;;;;;5070269;28;20377;-40
2021/06/26 03:36:02;;;;;;;14.45;12.77;;;12.60;99.90;;;;;;5071445;28;20052;-41
2021/06/26 03:38:28;;;;;;;14.13;12.68;;;12.60;99.90;;;;;;5078491;28;20373;-40
2021/06/26 03:40:54;;;;;;;16.05;14.23;;;12.60;99.90;;;;;;5072989;28;20021;-40
2021/06/26 03:43:19;;;;;;;14.70;12.45;;;12.60;99.90;;;;;;5073228;28;20019;-41
2021/06/26 03:45:46;;;;;;;17.52;13.45;;;12.60;99.90;;;;;;5069558;28;20058;-40
2021/06/26 03:48:12;;;;;;;15.93;13.45;;;12.70;99.90;;;;;;5073024;28;20086;-40
2021/06/26 03:50:39;;;;;;;17.63;13.88;;;12.70;99.90;;;;;;5073023;28;20024;-41
2021/06/26 03:53:05;;;;;;;16.15;13.15;;;12.80;99.90;;;;;;5085191;28;20100;-41
2021/06/26 03:55:31;;;;;;;15.95;12.65;;;12.80;99.90;;;;;;5092359;28;20102;-41
2021/06/26 03:57:56;;;;;;;14.88;13.25;;;12.80;99.90;;;;;;5085337;28;20091;-42
2021/06/26 04:00:22;;;;;;;15.68;13.05;;;12.80;99.90;;;;;;5093041;28;20051;-41
2021/06/26 04:02:47;;;;;;;12.80;11.50;;;12.90;99.90;;;;;;5080657;28;20545;-42
2021/06/26 04:05:13;;;;;;;13.77;11.45;;;12.90;99.90;;;;;;5080040;28;20525;-42
2021/06/26 04:07:38;;;;;;;16.02;12.63;;;13.00;99.90;;;;;;5081367;28;20032;-42
2021/06/26 04:10:08;;;;;;;14.40;11.93;;;13.10;99.90;;;;;;5091450;28;20416;-42
2021/06/26 04:12:34;;;;;;;12.82;10.77;;;13.10;99.90;;;;;;5094318;28;20024;-42
2021/06/26 04:14:59;;;;;;;12.00;9.82;;;13.20;99.90;;;;;;5096387;28;20444;-42
2021/06/26 04:17:25;;;;;;;14.35;12.10;;;13.30;99.90;;;;;;5087261;28;20028;-43
2021/06/26 04:19:51;;;;;;;13.10;11.00;;;13.30;99.90;;;;;;5095306;28;20648;-42
2021/06/26 04:22:17;;;;;;;13.18;11.68;;;13.30;99.90;;;;;;5090873;28;20055;-43
2021/06/26 04:24:42;;;;;;;12.27;10.50;;;13.30;99.90;;;;;;5095062;28;20034;-43
2021/06/26 04:27:08;;;;;;;13.68;11.82;;;13.40;99.90;;;;;;5094641;28;20081;-42
2021/06/26 04:29:34;;;;;;;13.65;11.05;;;13.40;99.90;;;;;;5093349;28;20036;-42
2021/06/26 04:31:59;;;;;;;13.63;11.25;;;13.50;99.90;;;;;;5102033;28;20066;-42
2021/06/26 04:34:25;;;;;;;11.95;10.50;;;13.60;99.90;;;;;;5087379;28;20040;-41
2021/06/26 04:36:52;;;;;;;14.00;10.43;;;13.60;99.90;;;;;;5095189;28;20108;-41
2021/06/26 04:39:18;;;;;;;11.23;9.75;;;13.70;99.90;;;;;;5088205;28;20058;-41
2021/06/26 04:41:44;;;;;;;12.48;9.80;;;13.70;99.90;;;;;;5095262;28;20024;-41
2021/06/26 04:44:10;;;;;;;10.98;9.82;;;13.80;99.90;;;;;;5093847;28;20026;-41
2021/06/26 04:46:36;;;;;;;12.90;10.20;;;13.80;99.90;;;;;;5094217;28;20403;-41
2021/06/26 04:49:22;;;;;;;10.68;8.95;;;13.90;99.90;;;;;;5072760;28;20037;-41
2021/06/26 04:51:47;;;;;;;10.90;9.00;;;14.00;99.90;;;;;;5054376;28;20060;-41
2021/06/26 04:54:13;;;;;;;11.88;9.07;;;14.10;99.90;;;;;;5082082;28;20043;-42
2021/06/26 04:56:40;;;;;;;10.90;9.38;;;14.10;99.90;;;;;;5073435;28;20040;-41
2021/06/26 04:59:05;;;;;;;11.35;9.13;;;14.20;99.90;;;;;;5083713;28;20032;-41
2021/06/26 05:01:30;;;;;;;10.57;8.85;;;14.40;99.90;;;;;;5085750;28;20016;-41
2021/06/26 05:03:56;;;;;;;10.07;8.38;;;14.40;99.90;;;;;;5085613;28;20103;-41
2021/06/26 05:06:21;;;;;;;9.30;7.78;;;14.50;99.90;;;;;;5082873;28;20019;-41
2021/06/26 05:08:47;;;;;;;12.38;8.85;;;14.60;99.90;;;;;;5072949;28;20444;-41
2021/06/26 05:11:12;;;;;;;10.13;7.50;;;14.70;99.90;;;;;;5097841;28;20038;-41
2021/06/26 05:13:38;;;;;;;9.50;7.88;;;14.90;99.90;;;;;;5101302;28;20069;-41
2021/06/26 05:16:04;;;;;;;9.32;7.35;;;15.00;99.90;;;;;;5097113;28;20078;-41
2021/06/26 05:18:29;;;;;;;9.07;7.25;;;15.10;99.90;;;;;;5093112;28;20011;-41
2021/06/26 05:20:56;;;;;;;9.90;7.03;;;15.30;99.90;;;;;;5097432;28;20023;-42
2021/06/26 05:23:21;;;;;;;12.25;6.97;;;15.30;99.90;;;;;;5100911;28;20016;-41
2021/06/26 05:25:47;;;;;;;9.00;7.05;;;15.40;99.90;;;;;;5100601;28;20031;-42
2021/06/26 05:28:13;;;;;;;11.02;7.90;;;15.60;99.90;;;;;;5094550;28;20530;-42
2021/06/26 05:30:39;;;;;;;11.45;7.95;;;15.70;99.90;;;;;;5084225;28;20054;-42
2021/06/26 05:33:05;;;;;;;8.07;6.88;;;15.80;99.90;;;;;;5079695;28;20024;-42
2021/06/26 05:35:32;;;;;;;8.63;6.63;;;15.90;99.90;;;;;;5078523;28;20073;-43
2021/06/26 05:37:57;;;;;;;11.93;6.50;;;15.90;99.90;;;;;;5077746;28;20025;-43
2021/06/26 05:40:23;;;;;;;7.63;6.20;;;16.00;99.90;;;;;;5075174;28;20073;-43
2021/06/26 05:42:49;;;;;;;9.35;6.53;;;16.00;99.90;;;;;;5076705;28;20028;-43
2021/06/26 05:45:14;;;;;;;8.27;6.25;;;16.10;99.90;;;;;;5080542;28;20024;-42
2021/06/26 05:47:40;;;;;;;8.45;6.85;;;16.10;99.90;;;;;;5076782;28;20085;-43
2021/06/26 05:50:06;;;;;;;8.15;6.22;;;16.20;99.90;;;;;;5078246;28;20505;-41
2021/06/26 05:52:32;;;;;;;8.00;6.05;;;16.30;99.90;;;;;;5076467;28;20110;-41
2021/06/26 05:54:57;;;;;;;8.98;6.75;;;16.30;99.90;;;;;;5076911;28;20523;-42
2021/06/26 05:57:23;;;;;;;7.88;7.00;;;16.40;99.90;;;;;;5076636;28;20020;-43
2021/06/26 05:59:49;;;;;;;9.10;6.30;;;16.50;99.90;;;;;;5069298;28;20032;-42
2021/06/26 06:02:15;;;;;;;7.45;6.25;;;16.50;99.90;;;;;;5071285;28;20390;-42
2021/06/26 06:04:43;;;;;;;7.60;5.95;;;16.60;99.90;;;;;;5069967;28;20056;-42
2021/06/26 06:07:11;;;;;;;7.43;6.15;;;16.60;99.90;;;;;;5075720;28;20437;-43
2021/06/26 06:09:37;;;;;;;10.02;6.50;;;16.70;99.90;;;;;;5078783;28;20034;-42
2021/06/26 06:12:03;;;;;;;7.75;5.80;;;16.80;99.90;;;;;;5090427;28;20031;-42
2021/06/26 06:14:29;;;;;;;9.80;7.03;;;16.90;99.90;;;;;;5086652;28;20012;-42
2021/06/26 06:16:55;;;;;;;8.10;7.30;;;17.00;99.90;;;;;;5093084;28;20024;-42
2021/06/26 06:19:20;;;;;;;9.00;6.88;;;17.10;99.90;;;;;;5088432;28;20047;-43
2021/06/26 06:21:46;;;;;;;9.77;7.45;;;17.20;99.90;;;;;;5100561;28;20032;-42
2021/06/26 06:24:11;;;;;;;7.05;6.35;;;17.20;99.90;;;;;;5091541;28;20074;-43
2021/06/26 06:26:37;;;;;;;8.13;6.75;;;17.30;99.90;;;;;;5093665;28;20353;-42
2021/06/26 06:29:02;;;;;;;8.07;6.72;;;17.40;99.90;;;;;;5078886;28;20406;-43
2021/06/26 06:31:28;;;;;;;7.43;6.47;;;17.50;99.90;;;;;;5072852;28;20032;-43
2021/06/26 06:33:53;;;;;;;9.25;6.75;;;17.60;99.90;;;;;;5073434;28;20028;-42
2021/06/26 06:36:19;;;;;;;9.40;7.10;;;17.70;99.90;;;;;;5080909;28;20024;-43
2021/06/26 06:38:44;;;;;;;10.85;6.60;;;17.80;99.70;;;;;;5094415;28;20036;-42
2021/06/26 06:41:10;;;;;;;7.45;6.40;;;17.90;99.90;;;;;;5081052;28;20025;-42
2021/06/26 06:43:35;;;;;;;7.55;6.25;;;18.00;99.90;;;;;;5101954;28;20480;-42
2021/06/26 06:46:03;;;;;;;7.22;6.53;;;18.10;99.40;;;;;;5082782;28;20029;-42
2021/06/26 06:48:29;;;;;;;8.40;6.82;;;18.10;99.50;;;;;;5105184;28;20023;-42
2021/06/26 06:50:55;;;;;;;8.65;6.30;;;18.30;99.40;;;;;;5085638;28;20020;-42
2021/06/26 06:53:20;;;;;;;7.97;6.28;;;18.40;99.60;;;;;;5081105;28;20338;-42
2021/06/26 06:55:50;;;;;;;7.85;6.15;;;18.40;99.40;;;;;;5089171;28;20588;-42
2021/06/26 06:58:17;;;;;;;7.07;6.05;;;18.50;99.00;;;;;;5083442;28;20112;-42
2021/06/26 07:00:43;;;;;;;7.72;5.82;;;18.70;97.70;;;;;;5087403;28;20388;-42
2021/06/26 07:03:08;;;;;;;6.55;5.90;;;18.80;97.60;;;;;;5090121;28;20040;-41
2021/06/26 07:05:34;;;;;;;6.55;5.95;;;18.90;96.80;;;;;;5095359;28;20114;-42
2021/06/26 07:07:59;;;;;;;7.80;6.63;;;19.00;96.60;;;;;;5082872;28;20029;-42
2021/06/26 07:10:25;;;;;;;8.35;6.57;;;19.10;97.40;;;;;;5084521;28;20088;-42
2021/06/26 07:12:51;;;;;;;9.05;7.28;;;19.10;96.80;;;;;;5088000;28;20030;-42
2021/06/26 07:15:16;;;;;;;7.07;6.38;;;19.20;95.70;;;;;;5093976;28;20550;-42
2021/06/26 07:17:42;;;;;;;8.52;6.78;;;19.40;95.60;;;;;;5083072;28;20112;-41
2021/06/26 07:20:08;;;;;;;6.93;6.25;;;19.40;95.40;;;;;;5096713;28;20061;-42
2021/06/26 07:22:33;;;;;;;7.80;6.78;;;19.50;95.50;;;;;;5087930;28;20031;-41
2021/06/26 07:24:59;;;;;;;6.80;5.97;;;19.60;94.80;;;;;;5097972;28;20099;-42
2021/06/26 07:27:24;;;;;;;7.80;6.57;;;19.70;95.00;;;;;;5095107;28;20030;-41
2021/06/26 07:29:50;;;;;;;9.82;7.05;;;19.80;95.10;;;;;;5089221;28;20023;-42
2021/06/26 07:32:15;;;;;;;8.88;7.22;;;19.90;93.80;;;;;;5097127;28;20159;-42
2021/06/26 07:34:41;;;;;;;9.73;7.28;;;20.00;93.50;;;;;;5084329;28;20024;-42
2021/06/26 07:37:07;;;;;;;10.35;7.53;;;20.10;93.20;;;;;;5097043;28;20675;-42
2021/06/26 07:39:32;;;;;;;7.00;6.30;;;20.30;93.10;;;;;;5086795;28;20040;-42
2021/06/26 07:41:57;;;;;;;9.05;7.25;;;20.50;93.30;;;;;;5097659;28;20020;-42
2021/06/26 07:44:24;;;;;;;9.90;8.02;;;20.70;92.40;;;;;;5088854;28;20052;-42
2021/06/26 07:46:50;;;;;;;9.35;6.45;;;20.80;91.70;;;;;;5096832;28;20094;-42
2021/06/26 07:49:16;;;;;;;9.65;7.63;;;20.90;91.20;;;;;;5091710;28;20670;-42
2021/06/26 07:51:42;;;;;;;10.57;8.05;;;21.10;90.60;;;;;;5083977;28;20024;-42
2021/06/26 07:54:07;;;;;;;9.35;8.13;;;21.20;90.30;;;;;;5096988;28;20024;-42
2021/06/26 07:56:34;;;;;;;7.35;6.55;;;21.40;90.30;;;;;;5072403;28;20108;-43
2021/06/26 07:58:59;;;;;;;9.80;8.50;;;21.50;90.20;;;;;;5086649;28;20028;-42
2021/06/26 08:01:26;;;;;;;9.20;8.23;;;21.60;83.90;;;;;;5089860;28;20410;-42
2021/06/26 08:03:52;;;;;;;12.30;7.25;;;21.60;81.80;;;;;;5097723;28;20254;-42
2021/06/26 08:06:17;;;;;;;7.57;6.82;;;21.80;83.10;;;;;;5091799;28;20028;-42
2021/06/26 08:08:43;;;;;;;8.52;6.70;;;22.00;84.80;;;;;;5083444;28;20510;-43
2021/06/26 08:11:08;;;;;;;8.63;6.80;;;22.30;85.60;;;;;;5097647;28;20043;-42
2021/06/26 08:13:34;;;;;;;6.65;5.70;;;22.70;84.90;;;;;;5103487;28;20462;-43
2021/06/26 08:15:59;;;;;;;6.68;5.80;;;23.50;81.10;;;;;;5098436;28;20413;-41
2021/06/26 08:18:25;;;;;;;8.85;6.97;;;24.70;77.90;;;;;;5101828;28;20060;-41
2021/06/26 08:20:50;;;;;;;6.85;5.57;;;25.40;70.40;;;;;;5101345;28;20437;-42
2021/06/26 08:23:16;;;;;;;5.30;4.60;;;26.80;66.60;;;;;;5102040;28;20385;-43
2021/06/26 08:25:42;;;;;;;5.78;4.72;;;27.40;62.40;;;;;;5102272;28;20024;-43
2021/06/26 08:28:07;;;;;;;4.88;4.38;;;28.50;60.20;;;;;;5098427;28;20059;-42
2021/06/26 08:30:33;;;;;;;6.03;4.28;;;29.50;55.50;;;;;;5096840;28;20106;-43
2021/06/26 08:32:58;;;;;;;5.63;3.92;;;30.10;54.40;;;;;;5098217;28;20389;-42
2021/06/26 08:35:24;;;;;;;4.38;3.85;;;30.70;51.80;;;;;;5098818;28;20035;-43
2021/06/26 08:37:51;;;;;;;5.80;4.22;;;30.90;49.70;;;;;;5103557;28;20431;-43
2021/06/26 08:40:18;;;;;;;3.50;3.28;;;30.70;48.50;;;;;;5100275;28;20106;-42
2021/06/26 08:42:45;;;;;;;3.50;3.20;;;31.80;48.40;;;;;;5100981;28;20030;-42
2021/06/26 08:45:17;;;;;;;4.70;3.58;;;32.10;46.40;;;;;;5099255;28;20103;-43
2021/06/26 08:47:49;;;;;;;4.00;3.60;;;32.80;45.30;;;;;;5100985;28;20532;-43
2021/06/26 08:50:15;;;;;;;4.55;3.17;;;32.90;43.80;;;;;;5098168;28;20062;-43
2021/06/26 08:52:41;;;;;;;3.20;2.85;;;34.00;44.30;;;;;;5092424;28;20023;-43
2021/06/26 08:55:07;;;;;;;5.10;3.58;;;34.30;44.50;;;;;;5102702;28;20024;-46
2021/06/26 08:57:35;;;;;;;4.05;3.25;;;34.60;40.60;;;;;;5100802;28;20166;-43
2021/06/26 09:00:03;;;;;;;8.57;3.17;;;34.90;41.50;;;;;;5097324;28;20027;-44
2021/06/26 09:02:29;;;;;;;3.20;2.90;;;35.50;40.40;;;;;;5101160;28;20058;-43
2021/06/26 09:04:56;;;;;;;3.95;3.17;;;35.60;40.20;;;;;;5099295;28;20056;-43
2021/06/26 09:07:29;;;;;;;3.35;2.72;;;35.90;40.20;;;;;;5081073;28;20076;-43
2021/06/26 09:09:56;;;;;;;5.20;3.17;;;36.30;39.90;;;;;;5095369;28;20030;-43
2021/06/26 09:12:23;;;;;;;4.95;3.55;;;36.50;38.30;;;;;;5098436;28;20054;-43
2021/06/26 09:14:49;;;;;;;3.17;2.88;;;36.00;37.00;;;;;;5093255;28;20020;-43
2021/06/26 09:17:18;;;;;;;3.22;3.03;;;36.00;37.70;;;;;;5098923;28;20027;-43
2021/06/26 09:19:59;;;;;;;2.70;2.50;;;36.20;38.30;;;;;;5100702;28;20016;-43
2021/06/26 09:22:38;;;;;;;3.00;2.42;;;36.50;38.00;;;;;;5093708;28;20462;-44
2021/06/26 09:25:05;;;;;;;3.13;2.83;;;37.00;37.40;;;;;;5104152;28;20037;-43
2021/06/26 09:27:35;;;;;;;3.20;2.67;;;36.80;38.20;;;;;;5097201;28;20094;-43
2021/06/26 09:30:00;;;;;;;3.20;2.80;;;36.90;38.50;;;;;;5101522;28;20530;-43
2021/06/26 09:32:29;;;;;;;2.75;2.45;;;37.10;37.90;;;;;;5103650;28;20011;-45
2021/06/26 09:34:55;;;;;;;5.53;3.20;;;37.50;37.90;;;;;;5097468;28;20024;-43
2021/06/26 09:37:24;;;;;;;2.53;2.33;;;37.80;36.60;;;;;;5102770;28;20349;-43
2021/06/26 09:39:51;;;;;;;;;;;37.70;35.90;;;;;;5092276;28;20059;-45
2021/06/26 09:42:26;;;;;;;2.60;2.35;;;38.60;34.30;;;;;;5103600;28;20014;-46
2021/06/26 09:44:51;;;;;;;3.22;2.33;;;38.80;36.60;;;;;;5096624;28;20509;-43
2021/06/26 09:47:28;;;;;;;3.42;3.13;;;38.80;36.80;;;;;;5104098;28;20016;-43
2021/06/26 09:50:14;;;;;;;3.20;2.90;;;38.60;34.30;;;;;;5095825;28;20024;-43
2021/06/26 09:52:57;;;;;;;3.10;2.90;;;38.20;34.40;;;;;;5088173;28;20098;-43
2021/06/26 09:55:31;;;;;;;2.83;2.63;;;37.90;35.30;;;;;;5095460;28;20008;-44
2021/06/26 09:58:01;;;;;;;6.90;3.25;;;38.00;35.50;;;;;;5088900;28;20016;-43
2021/06/26 10:00:29;;;;;;;3.33;2.83;;;38.10;35.50;;;;;;5102340;28;20030;-43
2021/06/26 10:02:55;;;;;;;3.42;2.55;;;37.60;35.30;;;;;;5093390;28;20366;-43
2021/06/26 10:05:21;;;;;;;2.42;2.25;;;36.80;36.20;;;;;;5105169;28;20016;-43
2021/06/26 10:07:51;;;;;;;6.60;2.60;;;36.00;38.20;;;;;;5099678;28;20354;-43
2021/06/26 10:10:20;;;;;;;4.32;3.00;;;36.40;37.70;;;;;;5092380;28;20036;-43
2021/06/26 10:12:46;;;;;;;2.88;2.58;;;37.00;37.50;;;;;;5102359;28;20083;-44
2021/06/26 10:15:12;;;;;;;2.53;2.33;;;36.60;36.40;;;;;;5097597;28;20024;-43
2021/06/26 10:17:39;;;;;;;3.38;2.88;;;36.40;35.60;;;;;;5080604;28;20017;-43
2021/06/26 10:20:07;;;;;;;2.83;2.20;;;35.10;36.10;;;;;;5100963;28;20054;-45
2021/06/26 10:22:38;;;;;;;3.63;3.33;;;35.10;37.00;;;;;;5098231;28;20024;-44
2021/06/26 10:25:06;;;;;;;2.72;2.50;;;35.70;36.70;;;;;;5103546;28;20028;-46
2021/06/26 10:27:32;;;;;;;2.92;2.33;;;35.60;37.50;;;;;;5094413;28;20028;-43
2021/06/26 10:30:20;;;;;;;3.47;2.10;;;36.60;35.80;;;;;;5101244;28;20408;-44
2021/06/26 10:32:54;;;;;;;3.45;2.60;;;36.70;36.30;;;;;;5099354;28;20016;-43
2021/06/26 10:35:20;;;;;;;5.18;3.22;;;35.50;36.70;;;;;;5098302;28;20149;-43
2021/06/26 10:37:57;;;;;;;2.85;2.65;;;35.40;35.90;;;;;;5099171;28;20039;-43
2021/06/26 10:40:34;;;;;;;4.32;3.28;;;34.20;37.60;;;;;;5083780;28;20032;-42
2021/06/26 10:43:00;;;;;;;3.97;2.88;;;33.20;39.50;;;;;;5097921;28;20553;-43
2021/06/26 10:45:26;;;;;;;3.75;3.30;;;32.30;40.10;;;;;;5092885;28;20103;-43
2021/06/26 10:47:52;;;;;;;3.85;3.45;;;31.40;41.40;;;;;;5104745;28;20062;-42
2021/06/26 10:50:22;;;;;;;3.50;3.20;;;30.70;44.90;;;;;;5098379;28;20107;-43
2021/06/26 10:52:50;;;;;;;;;;;30.10;45.00;;;;;;5099147;28;20016;-42
2021/06/26 10:55:56;;;;;;;4.25;3.72;;;29.60;47.30;;;;;;5098760;28;19990;-42
2021/06/26 10:58:28;;;;;;;4.35;3.95;;;29.70;48.50;;;;;;5083182;28;20028;-43
2021/06/26 11:00:54;;;;;;;6.38;4.53;;;29.30;48.80;;;;;;5102883;28;20031;-44
2021/06/26 11:03:23;;;;;;;4.60;4.20;;;28.80;46.60;;;;;;5098871;28;20543;-43
2021/06/26 11:05:48;;;;;;;6.57;4.15;;;28.80;49.40;;;;;;5101483;28;20015;-43
2021/06/26 11:08:18;;;;;;;9.02;3.88;;;29.50;51.60;;;;;;5100468;28;20039;-42
2021/06/26 11:10:51;;;;;;;5.78;3.53;;;30.30;46.50;;;;;;5095775;28;20059;-42
2021/06/26 11:13:25;;;;;;;3.80;3.17;;;31.00;45.50;;;;;;5107439;28;20623;-42
2021/06/26 11:15:51;;;;;;;4.78;3.85;;;30.80;46.20;;;;;;5098460;28;20111;-42
2021/06/26 11:18:18;;;;;;;4.25;3.85;;;30.80;46.10;;;;;;5102779;28;20115;-42
2021/06/26 11:20:44;;;;;;;4.70;3.60;;;31.50;45.40;;;;;;5102366;28;20082;-43
2021/06/26 11:23:17;;;;;;;4.00;2.88;;;31.50;44.30;;;;;;5101601;28;20357;-42
2021/06/26 11:25:44;;;;;;;4.90;3.50;;;31.80;43.50;;;;;;5101381;28;20031;-43
2021/06/26 11:28:17;;;;;;;4.72;3.28;;;32.90;45.20;;;;;;5101711;28;20115;-43
2021/06/26 11:31:04;;;;;;;5.50;3.22;;;32.50;42.50;;;;;;5101925;28;20085;-43
2021/06/26 11:33:31;;;;;;;4.00;3.60;;;31.90;44.10;;;;;;5097378;28;20512;-44
2021/06/26 11:35:57;;;;;;;5.05;3.67;;;31.20;42.90;;;;;;5100422;28;20178;-43
2021/06/26 11:38:23;;;;;;;4.05;3.75;;;30.40;43.80;;;;;;5102849;28;20103;-42
2021/06/26 11:40:51;;;;;;;3.80;3.50;;;29.90;45.10;;;;;;5101562;28;20358;-42
2021/06/26 11:43:16;;;;;;;4.80;4.40;;;29.30;46.00;;;;;;5101709;28;20028;-43
2021/06/26 11:45:46;;;;;;;4.43;4.03;;;29.20;48.60;;;;;;5102847;28;20027;-42
2021/06/26 11:48:12;;;;;;;;;;;28.90;47.90;;;;;;5100431;28;20414;-42
2021/06/26 11:51:04;;;;;;;4.15;3.85;;;28.50;50.10;;;;;;5102003;28;19917;-42
2021/06/26 11:53:30;;;;;;;4.43;4.05;;;28.30;49.00;;;;;;5094616;28;20413;-42
2021/06/26 11:58:41;;;;;;;6.50;4.10;;;27.80;50.80;;;;;;5101845;28;20012;-41
2021/06/26 12:01:08;;;;;;;5.53;4.25;;;28.50;51.90;;;;;;5099016;28;20353;-42
2021/06/26 12:03:35;;;;;;;4.57;4.18;;;29.20;51.20;;;;;;5103285;28;20206;-41
2021/06/26 12:06:05;;;;;;;5.75;4.60;;;29.40;50.20;;;;;;5106957;28;20389;-43
2021/06/26 12:08:39;;;;;;;7.15;4.15;;;29.10;47.80;;;;;;5097932;28;20381;-43
2021/06/26 12:11:05;;;;;;;4.40;4.00;;;29.00;50.90;;;;;;5093589;28;20102;-44
2021/06/26 12:13:31;;;;;;;8.52;4.22;;;29.20;48.50;;;;;;5109907;28;20028;-42
2021/06/26 12:15:56;;;;;;;7.72;4.47;;;29.00;48.70;;;;;;5098451;28;20012;-42
2021/06/26 12:18:22;;;;;;;4.78;4.30;;;29.60;50.90;;;;;;5100994;28;20019;-43
2021/06/26 12:20:47;;;;;;;4.32;3.97;;;29.60;47.20;;;;;;5099909;28;20016;-43
2021/06/26 12:23:13;;;;;;;4.68;4.20;;;29.70;47.40;;;;;;5099437;28;20564;-41
2021/06/26 12:25:41;;;;;;;5.15;4.38;;;29.50;48.80;;;;;;5102564;28;20107;-42
2021/06/26 12:28:10;;;;;;;4.90;4.40;;;29.00;47.40;;;;;;5100039;28;20448;-42
2021/06/26 12:30:38;;;;;;;4.85;4.43;;;28.70;47.80;;;;;;5103351;28;20024;-41
2021/06/26 12:33:14;;;;;;;4.63;3.83;;;28.30;49.60;;;;;;5085570;28;20123;-43
2021/06/26 12:35:39;;;;;;;5.47;4.97;;;28.10;51.10;;;;;;5101977;28;20019;-42
2021/06/26 12:38:06;;;;;;;5.40;4.90;;;27.70;51.00;;;;;;5097113;28;20389;-42
2021/06/26 12:40:43;;;;;;;6.32;5.03;;;28.00;50.30;;;;;;5100668;28;20027;-41
2021/06/26 12:43:14;;;;;;;6.05;4.78;;;27.90;48.60;;;;;;5099716;28;20039;-42